Time;durP1;ratioP1;P1;durP2;ratioP2;P2;SDS_P1;SDS_P2;PMS_P1;PMS_P2;Temp;Humidity;BMP_temperature;BMP_pressure;BME280_temperature;BME280_humidity;BME280_pressure;Samples;Min_cycle;Max_cycle;Signal;HPM_P1;HPM_P2
2023/07/02 00:01:39;;;;;;;1.80;1.42;;;20.70;99.90;;;;;;5011970;28;20120;-67
2023/07/02 00:04:25;;;;;;;1.88;1.23;;;20.60;99.90;;;;;;5009212;28;20109;-67
2023/07/02 00:07:11;;;;;;;1.92;1.40;;;20.60;99.90;;;;;;5005913;28;20065;-67
2023/07/02 00:09:57;;;;;;;1.77;1.48;;;20.60;99.90;;;;;;5004375;28;20101;-67
2023/07/02 00:12:44;;;;;;;2.40;1.38;;;20.60;99.90;;;;;;5008331;28;20514;-67
2023/07/02 00:15:30;;;;;;;1.80;1.30;;;20.60;99.90;;;;;;5005073;28;20030;-67
2023/07/02 00:18:16;;;;;;;1.70;1.30;;;20.60;99.90;;;;;;5007350;28;20042;-67
2023/07/02 00:21:02;;;;;;;4.82;1.83;;;20.60;99.90;;;;;;5004366;28;20058;-67
2023/07/02 00:23:48;;;;;;;1.40;1.27;;;20.60;99.90;;;;;;5005684;28;20046;-68
2023/07/02 00:26:34;;;;;;;2.17;1.33;;;20.50;99.90;;;;;;5009149;28;20047;-67
2023/07/02 00:29:20;;;;;;;2.80;1.65;;;20.50;99.90;;;;;;5001699;28;20088;-67
2023/07/02 00:32:06;;;;;;;3.65;1.75;;;20.50;99.90;;;;;;5006174;28;20380;-68
2023/07/02 00:34:52;;;;;;;1.42;1.27;;;20.50;99.90;;;;;;5007721;28;20036;-67
2023/07/02 00:37:38;;;;;;;3.58;1.83;;;20.40;99.90;;;;;;5008376;28;20034;-67
2023/07/02 00:40:24;;;;;;;1.60;1.33;;;20.40;99.90;;;;;;4997129;28;20035;-67
2023/07/02 00:43:12;;;;;;;1.92;1.50;;;20.40;99.90;;;;;;5002107;28;20121;-67
2023/07/02 00:45:59;;;;;;;2.60;1.67;;;20.40;99.90;;;;;;5010843;28;20153;-67
2023/07/02 00:48:46;;;;;;;4.15;1.80;;;20.30;99.90;;;;;;5007494;28;20045;-67
2023/07/02 00:51:33;;;;;;;2.28;1.42;;;20.30;99.90;;;;;;4998016;28;20050;-68
2023/07/02 00:54:19;;;;;;;2.60;1.65;;;20.30;99.90;;;;;;4995241;28;20038;-68
2023/07/02 00:57:05;;;;;;;2.45;1.70;;;20.30;99.90;;;;;;5004727;28;20368;-68
2023/07/02 00:59:52;;;;;;;3.45;1.90;;;20.20;99.90;;;;;;5002424;28;20049;-68
2023/07/02 01:02:42;;;;;;;2.83;1.70;;;20.30;99.90;;;;;;5004318;28;20065;-68
2023/07/02 01:05:46;;;;;;;2.53;1.70;;;20.20;99.90;;;;;;5007592;28;20061;-68
2023/07/02 01:08:32;;;;;;;2.50;1.83;;;20.20;99.90;;;;;;5002685;28;20511;-68
2023/07/02 01:11:20;;;;;;;3.60;1.70;;;20.20;99.90;;;;;;5009867;28;20038;-68
2023/07/02 01:14:10;;;;;;;3.67;2.00;;;20.20;99.90;;;;;;5006404;28;20026;-68
2023/07/02 01:16:58;;;;;;;3.05;1.77;;;20.10;99.90;;;;;;5008684;28;20041;-66
2023/07/02 01:19:51;;;;;;;2.90;2.20;;;20.10;99.90;;;;;;4993891;28;20471;-67
2023/07/02 01:22:38;;;;;;;3.15;2.00;;;20.10;99.90;;;;;;5002660;28;20040;-66
2023/07/02 01:25:24;;;;;;;3.40;2.15;;;20.10;99.90;;;;;;4999470;28;20681;-65
2023/07/02 01:28:12;;;;;;;4.93;2.10;;;20.10;99.90;;;;;;4997326;28;20124;-67
2023/07/02 01:30:58;;;;;;;3.03;2.15;;;20.00;99.90;;;;;;5008177;28;20030;-66
2023/07/02 01:33:44;;;;;;;3.78;2.60;;;20.00;99.90;;;;;;5007900;28;20065;-65
2023/07/02 01:36:30;;;;;;;3.20;2.15;;;20.00;99.90;;;;;;5011494;28;20092;-66
2023/07/02 01:39:16;;;;;;;4.40;2.33;;;20.00;99.90;;;;;;5006170;28;20096;-66
2023/07/02 01:42:12;;;;;;;3.67;2.50;;;20.00;99.90;;;;;;5012140;28;20034;-66
2023/07/02 01:44:58;;;;;;;4.80;2.70;;;19.90;99.90;;;;;;5011652;28;20049;-66
2023/07/02 01:47:44;;;;;;;6.30;3.08;;;20.00;99.90;;;;;;5012003;28;20113;-66
2023/07/02 01:50:30;;;;;;;5.43;2.60;;;20.00;99.90;;;;;;5012029;28;20571;-66
2023/07/02 01:53:16;;;;;;;4.13;2.80;;;20.00;99.90;;;;;;5009303;28;20113;-66
2023/07/02 01:56:02;;;;;;;3.88;2.88;;;19.90;99.90;;;;;;5007585;28;20060;-66
2023/07/02 01:58:48;;;;;;;4.60;2.53;;;19.90;99.90;;;;;;4995978;28;20384;-66
2023/07/02 02:01:33;;;;;;;5.97;3.30;;;19.90;99.90;;;;;;5004906;28;20038;-66
2023/07/02 02:04:19;;;;;;;4.10;3.00;;;19.90;99.90;;;;;;5009322;28;20049;-66
2023/07/02 02:07:05;;;;;;;4.75;3.30;;;19.80;99.90;;;;;;5008775;28;20022;-66
2023/07/02 02:09:51;;;;;;;4.00;3.25;;;19.80;99.90;;;;;;5003114;28;20037;-66
2023/07/02 02:12:37;;;;;;;4.97;3.80;;;19.80;99.90;;;;;;5005753;28;20225;-66
2023/07/02 02:15:23;;;;;;;4.45;2.83;;;19.80;99.90;;;;;;5008562;28;20030;-67
2023/07/02 02:18:09;;;;;;;6.05;3.40;;;19.80;99.90;;;;;;5004917;28;20084;-67
2023/07/02 02:20:55;;;;;;;3.97;3.03;;;19.70;99.90;;;;;;5009622;28;20045;-66
2023/07/02 02:23:41;;;;;;;4.43;3.25;;;19.70;99.90;;;;;;5007295;28;20038;-66
2023/07/02 02:26:27;;;;;;;5.43;3.28;;;19.70;99.90;;;;;;5007035;28;20072;-66
2023/07/02 02:29:13;;;;;;;6.03;2.92;;;19.60;99.90;;;;;;4999856;28;20038;-66
2023/07/02 02:31:59;;;;;;;4.97;3.00;;;19.60;99.90;;;;;;5008936;28;20499;-66
2023/07/02 02:34:44;;;;;;;4.70;2.70;;;19.60;99.90;;;;;;5004546;28;20483;-66
2023/07/02 02:37:32;;;;;;;3.42;2.90;;;19.60;99.90;;;;;;5008902;28;20584;-67
2023/07/02 02:40:18;;;;;;;3.80;2.78;;;19.60;99.90;;;;;;5004852;28;20026;-67
2023/07/02 02:43:04;;;;;;;3.45;2.65;;;19.60;99.90;;;;;;5008628;28;20486;-67
2023/07/02 02:45:50;;;;;;;3.47;2.60;;;19.60;99.90;;;;;;5008576;28;20097;-67
2023/07/02 02:48:36;;;;;;;3.92;2.70;;;19.70;99.90;;;;;;5010305;28;20030;-66
2023/07/02 02:51:25;;;;;;;4.15;3.25;;;19.60;99.90;;;;;;5000630;28;20060;-67
2023/07/02 02:54:11;;;;;;;3.55;2.78;;;19.60;99.90;;;;;;5004574;28;20041;-67
2023/07/02 02:56:57;;;;;;;3.42;2.67;;;19.60;99.90;;;;;;5004903;28;20049;-66
2023/07/02 02:59:43;;;;;;;6.68;3.20;;;19.60;99.90;;;;;;5005291;28;20109;-66
2023/07/02 03:02:29;;;;;;;3.75;2.88;;;19.60;99.90;;;;;;5009946;28;20491;-67
2023/07/02 03:05:15;;;;;;;4.07;2.60;;;19.60;99.90;;;;;;5011742;28;20442;-66
2023/07/02 03:08:02;;;;;;;6.63;3.10;;;19.60;99.90;;;;;;5003928;28;20053;-66
2023/07/02 03:10:48;;;;;;;3.80;2.60;;;19.60;99.90;;;;;;5007248;28;20041;-67
2023/07/02 03:13:34;;;;;;;6.32;2.83;;;19.60;99.90;;;;;;5009082;28;20515;-67
2023/07/02 03:16:21;;;;;;;6.43;2.38;;;19.60;99.90;;;;;;5009846;28;20479;-66
2023/07/02 03:19:07;;;;;;;4.32;2.55;;;19.60;99.90;;;;;;4992691;28;20034;-67
2023/07/02 03:21:53;;;;;;;3.45;2.47;;;19.60;99.90;;;;;;5008126;28;20483;-67
2023/07/02 03:24:39;;;;;;;3.03;2.33;;;19.60;99.90;;;;;;5000011;28;20056;-66
2023/07/02 03:27:25;;;;;;;5.07;2.55;;;19.60;99.90;;;;;;5004786;28;20401;-67
2023/07/02 03:30:11;;;;;;;5.30;2.20;;;19.60;99.90;;;;;;4991357;28;20041;-66
2023/07/02 03:32:57;;;;;;;5.22;2.47;;;19.60;99.90;;;;;;5006057;28;20041;-67
2023/07/02 03:35:44;;;;;;;3.00;2.20;;;19.60;99.90;;;;;;5008602;28;20108;-66
2023/07/02 03:38:29;;;;;;;4.18;2.50;;;19.60;99.90;;;;;;5008298;28;20087;-66
2023/07/02 03:41:15;;;;;;;3.33;2.75;;;19.60;99.90;;;;;;5011914;28;20041;-67
2023/07/02 03:44:01;;;;;;;4.35;2.80;;;19.60;99.90;;;;;;5007541;28;20029;-66
2023/07/02 03:46:47;;;;;;;3.85;3.03;;;19.60;99.90;;;;;;5010314;28;20021;-66
2023/07/02 03:49:33;;;;;;;4.30;2.35;;;19.60;99.90;;;;;;5000184;28;20042;-66
2023/07/02 03:52:19;;;;;;;4.70;2.10;;;19.60;99.90;;;;;;4992452;28;20064;-67
2023/07/02 03:55:06;;;;;;;2.80;1.98;;;19.60;99.90;;;;;;4991936;28;20038;-66
2023/07/02 03:57:52;;;;;;;4.72;2.33;;;19.70;99.90;;;;;;4994525;28;20483;-66
2023/07/02 04:00:38;;;;;;;4.07;2.03;;;19.60;99.90;;;;;;5010547;28;20088;-66
2023/07/02 04:03:25;;;;;;;2.90;2.30;;;19.60;99.90;;;;;;5005421;28;20026;-66
2023/07/02 04:06:10;;;;;;;3.40;2.35;;;19.60;99.90;;;;;;5009231;28;20042;-66
2023/07/02 04:08:56;;;;;;;3.85;2.33;;;19.60;99.90;;;;;;5001315;28;20050;-66
2023/07/02 04:11:42;;;;;;;3.58;2.35;;;19.60;99.90;;;;;;5006561;28;20050;-66
2023/07/02 04:14:28;;;;;;;3.47;2.22;;;19.60;99.90;;;;;;5007727;28;20517;-67
2023/07/02 04:17:14;;;;;;;2.75;2.20;;;19.60;99.90;;;;;;5004908;28;20074;-66
2023/07/02 04:20:03;;;;;;;3.60;2.30;;;19.60;99.90;;;;;;5002980;28;20376;-66
2023/07/02 04:22:49;;;;;;;4.07;2.47;;;19.60;99.90;;;;;;5006140;28;20057;-67
2023/07/02 04:25:35;;;;;;;8.57;2.35;;;19.50;99.90;;;;;;4997090;28;20038;-66
2023/07/02 04:28:21;;;;;;;4.70;2.17;;;19.50;99.90;;;;;;5002567;28;20033;-66
2023/07/02 04:31:07;;;;;;;3.75;2.10;;;19.50;99.90;;;;;;4987700;28;20037;-66
2023/07/02 04:33:53;;;;;;;4.53;2.20;;;19.60;99.90;;;;;;5005891;28;20046;-66
2023/07/02 04:36:38;;;;;;;3.47;1.98;;;19.60;99.90;;;;;;5009789;28;20057;-66
2023/07/02 04:39:24;;;;;;;5.68;2.20;;;19.60;99.90;;;;;;5009422;28;20041;-66
2023/07/02 04:42:14;;;;;;;3.38;2.10;;;19.70;99.90;;;;;;5009102;28;20065;-66
2023/07/02 04:45:02;;;;;;;3.70;2.33;;;19.70;99.90;;;;;;5009010;28;20144;-66
2023/07/02 04:47:48;;;;;;;4.00;2.08;;;19.80;99.90;;;;;;5004551;28;20030;-66
2023/07/02 04:50:34;;;;;;;2.85;2.28;;;19.80;99.90;;;;;;5005703;28;20125;-66
2023/07/02 04:53:20;;;;;;;7.50;2.15;;;19.90;99.90;;;;;;5006971;28;20517;-67
2023/07/02 04:56:06;;;;;;;4.72;2.40;;;19.90;99.90;;;;;;5001478;28;20368;-67
2023/07/02 04:58:52;;;;;;;3.83;2.10;;;20.00;99.90;;;;;;5001000;28;20038;-67
2023/07/02 05:01:38;;;;;;;2.20;1.70;;;20.00;99.80;;;;;;5005537;28;20033;-66
2023/07/02 05:04:24;;;;;;;4.65;1.90;;;20.10;99.70;;;;;;5003362;28;20136;-67
2023/07/02 05:07:10;;;;;;;3.85;2.20;;;20.10;99.70;;;;;;5004652;28;20047;-68
2023/07/02 05:09:56;;;;;;;3.58;1.88;;;20.10;99.70;;;;;;5005735;28;20494;-68
2023/07/02 05:12:42;;;;;;;5.35;2.10;;;20.10;99.60;;;;;;5007761;28;20085;-68
2023/07/02 05:15:28;;;;;;;5.60;2.00;;;20.20;99.40;;;;;;4999933;28;20117;-68
2023/07/02 05:18:14;;;;;;;3.80;1.90;;;20.20;99.30;;;;;;5006208;28;20490;-68
2023/07/02 05:20:59;;;;;;;2.88;1.98;;;20.30;99.30;;;;;;5010459;28;20037;-66
2023/07/02 05:23:46;;;;;;;3.50;2.70;;;20.30;99.20;;;;;;5003067;28;20041;-72
2023/07/02 05:26:33;;;;;;;4.65;2.13;;;20.30;99.10;;;;;;5011197;28;20060;-72
2023/07/02 05:29:19;;;;;;;3.17;1.77;;;20.40;98.90;;;;;;5008313;28;20096;-70
2023/07/02 05:32:05;;;;;;;3.10;1.92;;;20.40;98.80;;;;;;5012295;28;20042;-74
2023/07/02 05:34:52;;;;;;;4.55;1.85;;;20.40;98.70;;;;;;5011926;28;20037;-77
2023/07/02 05:37:38;;;;;;;3.65;1.88;;;20.40;98.70;;;;;;5006901;28;20526;-77
2023/07/02 05:40:24;;;;;;;3.72;2.42;;;20.50;98.70;;;;;;5005899;28;20026;-76
2023/07/02 05:43:09;;;;;;;4.43;2.42;;;20.60;98.60;;;;;;5011558;28;20030;-75
2023/07/02 05:46:00;;;;;;;2.95;2.08;;;20.60;98.40;;;;;;5013709;28;20502;-75
2023/07/02 05:48:45;;;;;;;3.55;1.95;;;20.70;98.20;;;;;;5001125;28;20438;-76
2023/07/02 05:51:31;;;;;;;4.10;2.53;;;20.80;98.10;;;;;;5013465;28;20505;-80
2023/07/02 05:54:17;;;;;;;3.92;2.28;;;20.90;97.90;;;;;;5007995;28;20046;-77
2023/07/02 05:57:03;;;;;;;5.68;2.38;;;20.90;97.60;;;;;;5011726;28;20042;-73
2023/07/02 05:59:49;;;;;;;4.38;2.20;;;20.90;97.40;;;;;;5000584;28;20038;-73
2023/07/02 06:02:36;;;;;;;3.70;2.20;;;20.80;97.40;;;;;;5003783;28;20038;-73
2023/07/02 06:05:22;;;;;;;2.42;1.90;;;20.70;97.40;;;;;;5003950;28;20453;-74
2023/07/02 06:08:08;;;;;;;3.75;2.10;;;20.70;97.30;;;;;;5010808;28;20506;-74
2023/07/02 06:10:54;;;;;;;3.50;2.10;;;20.70;97.10;;;;;;5003993;28;20033;-75
2023/07/02 06:13:40;;;;;;;4.07;2.25;;;20.70;97.10;;;;;;5003674;28;20502;-74
2023/07/02 06:16:25;;;;;;;4.00;1.90;;;20.80;97.10;;;;;;5011473;28;20084;-76
2023/07/02 06:19:11;;;;;;;3.83;2.10;;;20.90;97.00;;;;;;5009677;28;20041;-75
2023/07/02 06:21:57;;;;;;;5.68;2.20;;;21.00;97.00;;;;;;5010858;28;20479;-74
2023/07/02 06:24:43;;;;;;;3.17;1.83;;;21.10;96.90;;;;;;5007039;28;20571;-75
2023/07/02 06:27:29;;;;;;;4.47;2.60;;;21.30;96.60;;;;;;5005817;28;20034;-76
2023/07/02 06:30:15;;;;;;;3.50;2.33;;;21.30;96.40;;;;;;5005672;28;20530;-81
2023/07/02 06:33:01;;;;;;;3.88;2.10;;;21.40;96.20;;;;;;4994364;28;20042;-82
2023/07/02 06:35:47;;;;;;;4.10;2.40;;;21.50;95.80;;;;;;4998677;28;20121;-78
2023/07/02 06:38:33;;;;;;;4.55;2.00;;;21.50;95.60;;;;;;5000749;28;20030;-77
2023/07/02 06:41:19;;;;;;;2.80;1.90;;;21.50;95.40;;;;;;5011679;28;20034;-78
2023/07/02 06:44:05;;;;;;;5.47;2.85;;;21.60;95.30;;;;;;5008110;28;20678;-77
2023/07/02 06:46:51;;;;;;;4.53;1.90;;;21.70;95.20;;;;;;5006837;28;20038;-76
2023/07/02 06:49:37;;;;;;;3.35;2.22;;;21.70;94.90;;;;;;5005642;28;20037;-79
2023/07/02 06:52:22;;;;;;;5.82;2.40;;;21.70;94.80;;;;;;5008254;28;20065;-78
2023/07/02 06:55:09;;;;;;;4.32;2.42;;;21.80;94.80;;;;;;5008400;28;20431;-81
2023/07/02 06:57:55;;;;;;;2.90;1.70;;;21.80;94.70;;;;;;4993074;28;20049;-82
2023/07/02 07:00:41;;;;;;;5.28;1.95;;;21.90;94.40;;;;;;4997341;28;20032;-75
2023/07/02 07:03:27;;;;;;;5.32;2.00;;;22.00;94.50;;;;;;4997363;28;20037;-75
2023/07/02 07:06:13;;;;;;;2.47;1.75;;;22.10;94.50;;;;;;5008232;28;20045;-75
2023/07/02 07:08:58;;;;;;;5.88;2.58;;;22.20;94.80;;;;;;5008145;28;20081;-75
2023/07/02 07:11:44;;;;;;;2.72;1.90;;;22.40;94.60;;;;;;4998684;28;20498;-75
2023/07/02 07:14:30;;;;;;;3.28;2.00;;;22.50;94.10;;;;;;5003196;28;20037;-82
2023/07/02 07:17:16;;;;;;;5.57;2.58;;;22.60;93.90;;;;;;4999738;28;20037;-72
2023/07/02 07:20:04;;;;;;;4.18;2.00;;;22.70;93.60;;;;;;5008748;28;20113;-69
2023/07/02 07:22:50;;;;;;;6.63;2.63;;;22.90;93.40;;;;;;4999675;28;20037;-78
2023/07/02 07:25:36;;;;;;;3.65;1.80;;;22.90;93.10;;;;;;5001395;28;20032;-79
2023/07/02 07:28:22;;;;;;;5.03;1.88;;;23.00;92.90;;;;;;5000961;28;20034;-79
2023/07/02 07:31:08;;;;;;;4.63;2.00;;;23.10;92.30;;;;;;5008126;28;20032;-71
2023/07/02 07:33:54;;;;;;;4.70;2.00;;;23.10;92.10;;;;;;5004323;28;20479;-79
2023/07/02 07:36:40;;;;;;;7.22;2.00;;;23.10;91.80;;;;;;5002574;28;20484;-78
2023/07/02 07:39:26;;;;;;;5.45;2.53;;;23.10;91.60;;;;;;5007014;28;20033;-78
2023/07/02 07:42:15;;;;;;;2.83;2.00;;;23.10;91.50;;;;;;4996125;28;20033;-79
2023/07/02 07:45:03;;;;;;;3.20;1.77;;;23.20;91.50;;;;;;4996041;28;20030;-79
2023/07/02 07:47:49;;;;;;;5.07;2.25;;;23.20;91.40;;;;;;4998103;28;20080;-79
2023/07/02 07:50:35;;;;;;;3.28;2.15;;;23.20;90.90;;;;;;5007868;28;20038;-78
2023/07/02 07:53:20;;;;;;;4.05;2.10;;;23.20;90.70;;;;;;5006620;28;20050;-79
2023/07/02 07:56:06;;;;;;;6.75;2.30;;;23.20;90.70;;;;;;4999702;28;20459;-79
2023/07/02 07:58:52;;;;;;;3.65;2.08;;;23.10;90.60;;;;;;5004320;28;20030;-81
2023/07/02 08:01:38;;;;;;;4.78;2.00;;;23.00;90.40;;;;;;5004435;28;20044;-81
2023/07/02 08:04:24;;;;;;;3.80;1.90;;;22.90;90.30;;;;;;5005194;28;20042;-79
2023/07/02 08:07:10;;;;;;;3.65;1.75;;;22.80;90.50;;;;;;5004825;28;20034;-77
2023/07/02 08:09:56;;;;;;;3.25;1.90;;;22.60;90.50;;;;;;5008691;28;20032;-77
2023/07/02 08:12:42;;;;;;;4.35;1.98;;;22.60;90.50;;;;;;5000865;28;20133;-79
2023/07/02 08:15:28;;;;;;;3.25;2.03;;;22.50;90.80;;;;;;5007475;28;20038;-77
2023/07/02 08:18:14;;;;;;;3.35;2.20;;;22.40;90.90;;;;;;5005755;28;20084;-77
2023/07/02 08:21:00;;;;;;;3.72;2.50;;;22.30;90.90;;;;;;5005680;28;20087;-77
2023/07/02 08:23:46;;;;;;;3.65;2.00;;;22.20;91.00;;;;;;4996862;28;20540;-77
2023/07/02 08:26:32;;;;;;;13.27;2.78;;;22.20;91.10;;;;;;5006177;28;20072;-77
2023/07/02 08:29:17;;;;;;;2.88;2.03;;;22.20;91.10;;;;;;5004663;28;20034;-77
2023/07/02 08:32:04;;;;;;;3.67;2.55;;;22.10;91.10;;;;;;4994082;28;20052;-75
2023/07/02 08:34:52;;;;;;;3.08;1.85;;;22.10;91.30;;;;;;5000744;28;20509;-73
2023/07/02 08:37:38;;;;;;;4.57;2.47;;;22.10;91.40;;;;;;4999072;28;20050;-73
2023/07/02 08:40:24;;;;;;;5.60;2.83;;;22.10;91.60;;;;;;5002489;28;20034;-75
2023/07/02 08:43:10;;;;;;;3.25;2.33;;;22.10;91.40;;;;;;4998934;28;20205;-76
2023/07/02 08:45:57;;;;;;;4.00;2.78;;;22.10;91.20;;;;;;4994454;28;20038;-77
2023/07/02 08:48:43;;;;;;;4.10;1.98;;;22.10;91.20;;;;;;5005880;28;20105;-77
2023/07/02 08:51:29;;;;;;;5.18;2.40;;;22.10;91.20;;;;;;5004878;28;20201;-77
2023/07/02 08:54:17;;;;;;;4.72;2.60;;;22.00;91.00;;;;;;5008304;28;20034;-78
2023/07/02 08:57:05;;;;;;;5.32;2.75;;;22.00;91.00;;;;;;4997649;28;20045;-78
2023/07/02 08:59:51;;;;;;;5.95;2.42;;;22.00;90.80;;;;;;5005596;28;20050;-77
2023/07/02 09:02:37;;;;;;;4.10;2.70;;;22.00;90.40;;;;;;5000012;28;20113;-78
2023/07/02 09:05:23;;;;;;;3.75;2.75;;;22.00;90.40;;;;;;5006432;28;20069;-76
2023/07/02 09:08:09;;;;;;;7.20;2.90;;;22.10;90.30;;;;;;5006451;28;20030;-75
2023/07/02 09:11:09;;;;;;;4.78;2.58;;;22.10;90.10;;;;;;5010626;28;20037;-78
2023/07/02 09:14:00;;;;;;;7.30;2.63;;;22.20;88.90;;;;;;5011148;28;20100;-77
2023/07/02 09:16:45;;;;;;;4.68;2.70;;;22.30;88.50;;;;;;5009703;28;20394;-77
2023/07/02 09:19:32;;;;;;;4.40;2.55;;;22.30;88.10;;;;;;5008873;28;20402;-78
2023/07/02 09:22:18;;;;;;;5.25;2.70;;;22.40;87.30;;;;;;4995210;28;20518;-76
2023/07/02 09:25:05;;;;;;;5.40;3.00;;;22.50;87.30;;;;;;5005105;28;20084;-77
2023/07/02 09:27:51;;;;;;;6.55;2.63;;;22.60;87.20;;;;;;5008230;28;20042;-77
2023/07/02 09:30:37;;;;;;;4.80;2.83;;;22.80;87.10;;;;;;5001105;28;20061;-78
2023/07/02 09:33:24;;;;;;;5.30;3.15;;;22.90;86.50;;;;;;5008969;28;20048;-78
2023/07/02 09:36:12;;;;;;;7.15;3.22;;;23.00;86.20;;;;;;5010321;28;20033;-78
2023/07/02 09:38:58;;;;;;;6.03;2.92;;;23.10;85.70;;;;;;5011003;28;20498;-78
2023/07/02 09:41:45;;;;;;;5.13;3.28;;;23.20;85.20;;;;;;5009170;28;20037;-77
2023/07/02 09:44:33;;;;;;;5.35;3.45;;;23.30;84.50;;;;;;5013101;28;20037;-79
2023/07/02 09:47:21;;;;;;;8.90;4.20;;;23.40;84.10;;;;;;4993980;28;20030;-78
2023/07/02 09:50:08;;;;;;;5.65;3.28;;;23.40;83.40;;;;;;5011393;28;20037;-78
2023/07/02 09:52:54;;;;;;;5.03;3.35;;;23.50;83.20;;;;;;5008861;28;20046;-79
2023/07/02 09:55:42;;;;;;;6.28;3.20;;;23.50;82.70;;;;;;5008530;28;20034;-79
2023/07/02 09:58:31;;;;;;;5.05;3.20;;;23.40;82.40;;;;;;5001030;28;20486;-79
2023/07/02 10:01:17;;;;;;;6.72;3.50;;;23.40;82.80;;;;;;5008055;28;20061;-79
2023/07/02 10:04:18;;;;;;;7.82;3.97;;;23.40;82.60;;;;;;5009613;28;20045;-79
2023/07/02 10:07:04;;;;;;;5.35;3.17;;;23.30;82.70;;;;;;5009707;28;20398;-78
2023/07/02 10:09:50;;;;;;;8.60;3.50;;;23.30;82.50;;;;;;5009644;28;20042;-79
2023/07/02 10:12:45;;;;;;;7.93;3.67;;;23.30;83.00;;;;;;4995712;28;20169;-80
2023/07/02 10:15:37;;;;;;;8.18;4.18;;;23.30;82.80;;;;;;5010219;28;20065;-77
2023/07/02 10:18:26;;;;;;;7.22;3.83;;;23.30;82.50;;;;;;5011529;28;20037;-78
2023/07/02 10:21:18;;;;;;;6.80;4.00;;;23.30;82.40;;;;;;5010434;28;20479;-78
2023/07/02 10:24:15;;;;;;;9.27;4.18;;;23.30;82.40;;;;;;5010578;28;20041;-80
2023/07/02 10:27:03;;;;;;;6.30;3.00;;;23.40;82.40;;;;;;5006637;28;20038;-79
2023/07/02 10:29:50;;;;;;;8.15;3.78;;;23.50;82.40;;;;;;5003418;28;20044;-79
2023/07/02 10:32:40;;;;;;;6.05;3.58;;;23.60;82.50;;;;;;5005131;28;20544;-78
2023/07/02 10:35:32;;;;;;;5.35;3.38;;;23.60;82.70;;;;;;5010881;28;20053;-77
2023/07/02 10:38:23;;;;;;;6.63;3.67;;;23.60;82.00;;;;;;5001782;28;20076;-77
2023/07/02 10:41:09;;;;;;;7.25;3.45;;;23.70;82.00;;;;;;4991087;28;20034;-79
2023/07/02 10:44:06;;;;;;;8.45;3.92;;;23.60;81.60;;;;;;5006930;28;20511;-78
2023/07/02 10:46:52;;;;;;;8.43;3.38;;;23.70;81.80;;;;;;5011034;28;20034;-76
2023/07/02 10:49:38;;;;;;;7.15;3.47;;;23.70;81.80;;;;;;5010443;28;20041;-78
2023/07/02 10:52:24;;;;;;;7.07;3.38;;;23.70;81.40;;;;;;5010578;28;20173;-78
2023/07/02 10:55:10;;;;;;;11.15;4.50;;;23.60;80.80;;;;;;5012584;28;20112;-79
2023/07/02 10:58:04;;;;;;;7.15;3.90;;;23.70;80.40;;;;;;5004680;28;20041;-75
2023/07/02 11:00:51;;;;;;;6.60;3.80;;;23.70;80.60;;;;;;5007576;28;20072;-76
2023/07/02 11:03:37;;;;;;;6.28;4.20;;;23.70;81.10;;;;;;5013051;28;20129;-76
2023/07/02 11:06:23;;;;;;;7.40;3.78;;;23.80;81.10;;;;;;4999108;28;20034;-75
2023/07/02 11:09:17;;;;;;;6.32;3.70;;;23.80;81.20;;;;;;5006413;28;20053;-76
2023/07/02 11:12:03;;;;;;;7.82;3.80;;;23.90;81.00;;;;;;5004854;28;20045;-77
2023/07/02 11:14:49;;;;;;;8.23;3.40;;;23.90;79.90;;;;;;5009899;28;20060;-78
2023/07/02 11:17:35;;;;;;;8.55;4.18;;;23.90;79.20;;;;;;5004095;28;20419;-75
2023/07/02 11:20:21;;;;;;;6.72;3.55;;;23.90;78.80;;;;;;4999733;28;20548;-75
2023/07/02 11:23:24;;;;;;;8.93;4.07;;;23.80;78.20;;;;;;5007801;28;20036;-78
2023/07/02 11:26:10;;;;;;;6.93;3.65;;;23.50;78.50;;;;;;5002279;28;20034;-77
2023/07/02 11:28:56;;;;;;;7.97;4.15;;;23.40;78.90;;;;;;4999518;28;20096;-77
2023/07/02 11:31:42;;;;;;;7.40;4.07;;;23.30;79.00;;;;;;5009071;28;20053;-77
2023/07/02 11:34:28;;;;;;;9.20;4.10;;;23.10;79.10;;;;;;5006037;28;20502;-78
2023/07/02 11:37:14;;;;;;;8.73;4.85;;;23.00;79.10;;;;;;5001952;28;20050;-79
2023/07/02 11:40:00;;;;;;;9.88;4.32;;;22.90;79.00;;;;;;5003827;28;20163;-78
2023/07/02 11:42:46;;;;;;;11.32;4.50;;;22.90;79.30;;;;;;5008341;28;20018;-77
2023/07/02 11:45:32;;;;;;;8.57;4.85;;;22.90;79.50;;;;;;5005165;28;20037;-75
2023/07/02 11:48:18;;;;;;;14.93;4.60;;;22.90;78.60;;;;;;5003117;28;20068;-78
2023/07/02 11:51:03;;;;;;;11.70;4.53;;;23.00;77.90;;;;;;4994333;28;20125;-75
2023/07/02 11:53:49;;;;;;;10.35;5.03;;;23.00;76.60;;;;;;5005361;28;20541;-77
2023/07/02 11:56:35;;;;;;;9.45;4.35;;;23.00;76.40;;;;;;5008416;28;20042;-78
2023/07/02 11:59:21;;;;;;;8.10;4.93;;;23.10;76.30;;;;;;5004633;28;20446;-77
2023/07/02 12:02:07;;;;;;;10.52;4.47;;;23.10;74.50;;;;;;5001870;28;20523;-70
2023/07/02 12:04:53;;;;;;;6.35;3.65;;;23.10;73.80;;;;;;5002795;28;20034;-70
2023/07/02 12:07:39;;;;;;;10.30;3.80;;;23.20;73.10;;;;;;5009240;28;20048;-71
2023/07/02 12:10:25;;;;;;;7.10;3.88;;;23.20;72.80;;;;;;5006382;28;20034;-70
2023/07/02 12:13:11;;;;;;;8.93;4.45;;;23.30;72.40;;;;;;4999745;28;20473;-68
2023/07/02 12:15:57;;;;;;;10.57;4.65;;;23.30;72.60;;;;;;5006239;28;20029;-68
2023/07/02 12:18:43;;;;;;;12.40;5.18;;;23.30;72.00;;;;;;5008168;28;20376;-68
2023/07/02 12:21:28;;;;;;;8.10;4.32;;;23.40;71.90;;;;;;4997433;28;20423;-68
2023/07/02 12:24:14;;;;;;;7.85;4.15;;;23.40;72.00;;;;;;5008459;28;20544;-67
2023/07/02 12:27:00;;;;;;;10.52;3.75;;;23.40;71.10;;;;;;5008998;28;20117;-68
2023/07/02 12:29:48;;;;;;;9.65;4.65;;;23.50;70.70;;;;;;5003633;28;20057;-67
2023/07/02 12:32:34;;;;;;;10.13;4.32;;;23.60;70.00;;;;;;5003680;28;20046;-67
2023/07/02 12:35:20;;;;;;;8.13;3.60;;;23.60;69.70;;;;;;4992873;28;20508;-68
2023/07/02 12:38:08;;;;;;;12.10;4.53;;;23.50;68.50;;;;;;4997224;28;20646;-71
2023/07/02 12:40:54;;;;;;;19.38;4.63;;;23.60;69.20;;;;;;5007690;28;20075;-71
2023/07/02 12:43:40;;;;;;;8.20;4.03;;;23.60;68.70;;;;;;5003040;28;20029;-67
2023/07/02 12:46:26;;;;;;;8.63;4.22;;;23.70;68.90;;;;;;5005524;28;20092;-68
2023/07/02 12:49:12;;;;;;;15.25;5.25;;;23.70;68.10;;;;;;5006808;28;20084;-67
2023/07/02 12:51:58;;;;;;;9.77;4.45;;;23.80;68.20;;;;;;5001216;28;20502;-68
2023/07/02 12:54:44;;;;;;;9.70;4.07;;;23.80;67.90;;;;;;5006431;28;20462;-68
2023/07/02 12:57:30;;;;;;;9.13;4.13;;;23.90;67.50;;;;;;5004986;28;20421;-68
2023/07/02 13:00:17;;;;;;;9.80;4.93;;;24.00;66.50;;;;;;5002830;28;20054;-69
2023/07/02 13:03:02;;;;;;;8.95;4.28;;;24.10;66.20;;;;;;5006186;28;20417;-68
2023/07/02 13:05:49;;;;;;;13.63;4.70;;;24.20;66.10;;;;;;5008980;28;20034;-68
2023/07/02 13:08:34;;;;;;;10.02;4.70;;;24.30;66.10;;;;;;4999718;28;20069;-68
2023/07/02 13:11:20;;;;;;;10.65;4.68;;;24.30;65.70;;;;;;5003969;28;20037;-69
2023/07/02 13:14:06;;;;;;;6.85;4.43;;;24.20;65.50;;;;;;5005561;28;20498;-69
2023/07/02 13:16:52;;;;;;;9.13;4.55;;;24.10;65.60;;;;;;5001946;28;20038;-68
2023/07/02 13:19:38;;;;;;;10.82;4.68;;;24.00;65.10;;;;;;5008819;28;20403;-70
2023/07/02 13:22:24;;;;;;;11.23;4.60;;;24.00;65.50;;;;;;5002960;28;20096;-69
2023/07/02 13:25:10;;;;;;;10.68;4.53;;;24.10;65.30;;;;;;4999588;28;20044;-70
2023/07/02 13:27:56;;;;;;;10.75;4.57;;;24.20;65.10;;;;;;5005792;28;20049;-69
2023/07/02 13:30:42;;;;;;;11.85;5.80;;;24.30;65.00;;;;;;5002521;28;20052;-69
2023/07/02 13:33:28;;;;;;;7.32;3.58;;;24.40;64.80;;;;;;5006583;28;20215;-70
2023/07/02 13:36:14;;;;;;;12.43;5.47;;;24.40;64.70;;;;;;5010597;28;20025;-69
2023/07/02 13:39:02;;;;;;;10.18;4.53;;;24.30;64.00;;;;;;5005872;28;20076;-69
2023/07/02 13:41:50;;;;;;;10.10;4.00;;;24.40;63.80;;;;;;5009233;28;20409;-70
2023/07/02 13:44:36;;;;;;;10.50;5.00;;;24.50;64.40;;;;;;5007306;28;20038;-69
2023/07/02 13:47:22;;;;;;;7.30;4.25;;;24.60;64.10;;;;;;5009590;28;20073;-69
2023/07/02 13:50:08;;;;;;;12.05;4.47;;;24.80;63.60;;;;;;4999317;28;20117;-68
2023/07/02 13:52:54;;;;;;;8.65;4.35;;;24.90;62.40;;;;;;5001897;28;20041;-68
2023/07/02 13:55:40;;;;;;;8.60;4.30;;;24.70;62.00;;;;;;5009854;28;20042;-69
2023/07/02 13:58:26;;;;;;;9.85;4.43;;;24.60;62.40;;;;;;5009823;28;20038;-69
2023/07/02 14:01:12;;;;;;;9.77;4.35;;;24.70;63.10;;;;;;5008311;28;20129;-69
2023/07/02 14:03:58;;;;;;;15.60;4.53;;;24.70;62.50;;;;;;5008641;28;20109;-69
2023/07/02 14:06:44;;;;;;;9.75;5.22;;;24.70;61.80;;;;;;5009014;28;20037;-69
2023/07/02 14:09:30;;;;;;;8.05;4.47;;;24.70;62.80;;;;;;5006550;28;20430;-69
2023/07/02 14:12:16;;;;;;;7.30;3.75;;;24.60;62.40;;;;;;5002465;28;20072;-69
2023/07/02 14:15:02;;;;;;;11.73;4.80;;;24.50;61.80;;;;;;5005679;28;20026;-69
2023/07/02 14:17:49;;;;;;;9.60;4.05;;;24.50;61.40;;;;;;5008427;28;20037;-70
2023/07/02 14:20:34;;;;;;;10.20;4.65;;;24.30;61.30;;;;;;4998938;28;20042;-70
2023/07/02 14:23:20;;;;;;;9.40;4.05;;;24.30;61.70;;;;;;5009245;28;20040;-69
2023/07/02 14:26:08;;;;;;;6.43;4.35;;;24.30;61.40;;;;;;5011140;28;20479;-71